sensor_id;sensor_type;location;lat;lon;timestamp;temperature;humidity
3005;DHT22;1512;51.486;6.610;2023-05-14T00:02:50;13.70;26.70
3005;DHT22;1512;51.486;6.610;2023-05-14T00:06:59;13.60;10.90
3005;DHT22;1512;51.486;6.610;2023-05-14T00:11:08;13.60;1.00
3005;DHT22;1512;51.486;6.610;2023-05-14T00:15:17;13.50;5.80
3005;DHT22;1512;51.486;6.610;2023-05-14T00:19:25;13.50;1.00
3005;DHT22;1512;51.486;6.610;2023-05-14T00:23:34;13.40;4.70
3005;DHT22;1512;51.486;6.610;2023-05-14T00:27:43;13.30;33.60
3005;DHT22;1512;51.486;6.610;2023-05-14T00:31:52;13.30;97.40
3005;DHT22;1512;51.486;6.610;2023-05-14T00:36:00;13.30;34.70
3005;DHT22;1512;51.486;6.610;2023-05-14T00:40:10;13.20;56.90
3005;DHT22;1512;51.486;6.610;2023-05-14T00:44:19;13.20;66.60
3005;DHT22;1512;51.486;6.610;2023-05-14T00:48:28;13.10;91.20
3005;DHT22;1512;51.486;6.610;2023-05-14T00:52:38;13.20;47.70
3005;DHT22;1512;51.486;6.610;2023-05-14T00:56:47;13.10;76.40
3005;DHT22;1512;51.486;6.610;2023-05-14T01:00:56;13.10;92.00
3005;DHT22;1512;51.486;6.610;2023-05-14T01:05:05;13.10;62.80
3005;DHT22;1512;51.486;6.610;2023-05-14T01:09:29;13.10;47.70
3005;DHT22;1512;51.486;6.610;2023-05-14T01:18:12;13.00;88.50
3005;DHT22;1512;51.486;6.610;2023-05-14T01:22:21;13.00;73.70
3005;DHT22;1512;51.486;6.610;2023-05-14T01:26:30;12.90;33.90
3005;DHT22;1512;51.486;6.610;2023-05-14T01:30:48;12.90;6.40
3005;DHT22;1512;51.486;6.610;2023-05-14T01:34:57;12.90;27.80
3005;DHT22;1512;51.486;6.610;2023-05-14T01:39:08;12.90;1.00
3005;DHT22;1512;51.486;6.610;2023-05-14T01:43:18;12.80;1.00
3005;DHT22;1512;51.486;6.610;2023-05-14T01:47:27;12.80;1.00
3005;DHT22;1512;51.486;6.610;2023-05-14T01:51:35;12.70;1.00
3005;DHT22;1512;51.486;6.610;2023-05-14T01:55:44;12.60;1.00
3005;DHT22;1512;51.486;6.610;2023-05-14T01:59:53;12.50;1.00
3005;DHT22;1512;51.486;6.610;2023-05-14T02:04:01;12.50;1.00
3005;DHT22;1512;51.486;6.610;2023-05-14T02:08:10;12.40;12.00
3005;DHT22;1512;51.486;6.610;2023-05-14T02:12:19;12.30;1.00
3005;DHT22;1512;51.486;6.610;2023-05-14T02:16:28;12.30;6.90
3005;DHT22;1512;51.486;6.610;2023-05-14T02:20:36;12.30;13.40
3005;DHT22;1512;51.486;6.610;2023-05-14T02:24:45;12.20;30.80
3005;DHT22;1512;51.486;6.610;2023-05-14T02:28:55;12.10;24.50
3005;DHT22;1512;51.486;6.610;2023-05-14T02:33:04;12.10;12.40
3005;DHT22;1512;51.486;6.610;2023-05-14T02:37:13;12.10;28.90
3005;DHT22;1512;51.486;6.610;2023-05-14T02:41:22;12.20;20.70
3005;DHT22;1512;51.486;6.610;2023-05-14T02:45:30;12.20;6.30
3005;DHT22;1512;51.486;6.610;2023-05-14T02:49:39;12.10;1.00
3005;DHT22;1512;51.486;6.610;2023-05-14T02:53:48;12.10;1.00
3005;DHT22;1512;51.486;6.610;2023-05-14T02:57:57;12.10;1.00
3005;DHT22;1512;51.486;6.610;2023-05-14T03:02:05;12.10;1.00
3005;DHT22;1512;51.486;6.610;2023-05-14T03:06:14;12.10;1.00
3005;DHT22;1512;51.486;6.610;2023-05-14T03:10:23;12.00;1.00
3005;DHT22;1512;51.486;6.610;2023-05-14T03:14:32;12.00;1.00
3005;DHT22;1512;51.486;6.610;2023-05-14T03:18:41;12.00;1.00
3005;DHT22;1512;51.486;6.610;2023-05-14T03:22:50;11.90;1.00
3005;DHT22;1512;51.486;6.610;2023-05-14T03:26:58;11.90;1.00
3005;DHT22;1512;51.486;6.610;2023-05-14T03:31:07;11.80;1.00
3005;DHT22;1512;51.486;6.610;2023-05-14T03:35:16;11.80;1.00
3005;DHT22;1512;51.486;6.610;2023-05-14T03:39:25;11.80;1.00
3005;DHT22;1512;51.486;6.610;2023-05-14T03:43:33;11.80;1.00
3005;DHT22;1512;51.486;6.610;2023-05-14T03:47:42;11.80;1.00
3005;DHT22;1512;51.486;6.610;2023-05-14T03:51:51;11.70;1.00
3005;DHT22;1512;51.486;6.610;2023-05-14T03:56:00;11.70;1.00
3005;DHT22;1512;51.486;6.610;2023-05-14T04:00:09;11.70;1.00
3005;DHT22;1512;51.486;6.610;2023-05-14T04:04:18;11.70;1.00
3005;DHT22;1512;51.486;6.610;2023-05-14T04:08:27;11.70;1.00
3005;DHT22;1512;51.486;6.610;2023-05-14T04:12:36;11.70;1.00
3005;DHT22;1512;51.486;6.610;2023-05-14T04:16:44;11.80;1.00
3005;DHT22;1512;51.486;6.610;2023-05-14T04:20:53;11.80;1.00
3005;DHT22;1512;51.486;6.610;2023-05-14T04:25:02;11.70;1.00
3005;DHT22;1512;51.486;6.610;2023-05-14T04:29:11;11.80;1.00
3005;DHT22;1512;51.486;6.610;2023-05-14T04:33:20;11.70;1.00
3005;DHT22;1512;51.486;6.610;2023-05-14T04:37:28;11.60;27.80
3005;DHT22;1512;51.486;6.610;2023-05-14T04:41:38;11.60;35.00
3005;DHT22;1512;51.486;6.610;2023-05-14T04:45:46;11.60;64.00
3005;DHT22;1512;51.486;6.610;2023-05-14T04:49:55;11.60;91.00
3005;DHT22;1512;51.486;6.610;2023-05-14T04:54:04;11.60;99.90
3005;DHT22;1512;51.486;6.610;2023-05-14T04:58:13;11.60;99.90
3005;DHT22;1512;51.486;6.610;2023-05-14T05:02:21;11.60;99.90
3005;DHT22;1512;51.486;6.610;2023-05-14T05:06:30;11.60;99.90
3005;DHT22;1512;51.486;6.610;2023-05-14T05:10:38;11.60;99.90
3005;DHT22;1512;51.486;6.610;2023-05-14T05:14:47;11.70;99.90
3005;DHT22;1512;51.486;6.610;2023-05-14T05:18:56;11.70;99.90
3005;DHT22;1512;51.486;6.610;2023-05-14T05:23:05;11.80;99.90
3005;DHT22;1512;51.486;6.610;2023-05-14T05:27:14;11.90;99.90
3005;DHT22;1512;51.486;6.610;2023-05-14T05:31:22;12.00;99.90
3005;DHT22;1512;51.486;6.610;2023-05-14T05:35:31;12.10;99.90
3005;DHT22;1512;51.486;6.610;2023-05-14T05:39:40;12.10;99.90
3005;DHT22;1512;51.486;6.610;2023-05-14T05:43:48;12.10;99.90
3005;DHT22;1512;51.486;6.610;2023-05-14T05:47:57;12.20;99.90
3005;DHT22;1512;51.486;6.610;2023-05-14T05:52:06;12.30;99.90
3005;DHT22;1512;51.486;6.610;2023-05-14T05:56:15;12.30;99.90
3005;DHT22;1512;51.486;6.610;2023-05-14T06:00:23;12.30;82.50
3005;DHT22;1512;51.486;6.610;2023-05-14T06:04:33;12.40;99.90
3005;DHT22;1512;51.486;6.610;2023-05-14T06:08:41;12.50;56.50
3005;DHT22;1512;51.486;6.610;2023-05-14T06:12:50;12.50;99.90
3005;DHT22;1512;51.486;6.610;2023-05-14T06:16:59;12.60;99.90
3005;DHT22;1512;51.486;6.610;2023-05-14T06:21:07;12.80;99.90
3005;DHT22;1512;51.486;6.610;2023-05-14T06:25:16;12.90;1.00
3005;DHT22;1512;51.486;6.610;2023-05-14T06:29:25;12.90;1.00
3005;DHT22;1512;51.486;6.610;2023-05-14T06:33:34;12.90;1.00
3005;DHT22;1512;51.486;6.610;2023-05-14T06:37:42;13.00;1.00
3005;DHT22;1512;51.486;6.610;2023-05-14T06:41:51;13.10;1.00
3005;DHT22;1512;51.486;6.610;2023-05-14T06:46:00;13.10;1.00
3005;DHT22;1512;51.486;6.610;2023-05-14T06:50:09;13.10;1.00
3005;DHT22;1512;51.486;6.610;2023-05-14T06:54:18;13.20;1.00
3005;DHT22;1512;51.486;6.610;2023-05-14T06:58:27;13.30;1.00
3005;DHT22;1512;51.486;6.610;2023-05-14T07:02:35;13.30;3.50
3005;DHT22;1512;51.486;6.610;2023-05-14T07:06:44;13.50;14.20
3005;DHT22;1512;51.486;6.610;2023-05-14T07:10:53;13.60;1.00
3005;DHT22;1512;51.486;6.610;2023-05-14T07:15:03;13.80;1.00
3005;DHT22;1512;51.486;6.610;2023-05-14T07:19:12;13.90;1.00
3005;DHT22;1512;51.486;6.610;2023-05-14T07:23:21;13.90;1.00
3005;DHT22;1512;51.486;6.610;2023-05-14T07:27:29;14.00;1.00
3005;DHT22;1512;51.486;6.610;2023-05-14T07:31:38;14.00;1.00
3005;DHT22;1512;51.486;6.610;2023-05-14T07:35:47;14.00;1.00
3005;DHT22;1512;51.486;6.610;2023-05-14T07:39:55;14.10;1.00
3005;DHT22;1512;51.486;6.610;2023-05-14T07:44:04;14.40;1.00
3005;DHT22;1512;51.486;6.610;2023-05-14T07:48:13;14.50;1.00
3005;DHT22;1512;51.486;6.610;2023-05-14T07:52:22;14.70;1.00
3005;DHT22;1512;51.486;6.610;2023-05-14T07:56:31;14.90;1.00
3005;DHT22;1512;51.486;6.610;2023-05-14T08:00:40;15.10;1.00
3005;DHT22;1512;51.486;6.610;2023-05-14T08:04:49;15.30;1.00
3005;DHT22;1512;51.486;6.610;2023-05-14T08:08:57;15.50;1.00
3005;DHT22;1512;51.486;6.610;2023-05-14T08:13:06;15.70;1.00
3005;DHT22;1512;51.486;6.610;2023-05-14T08:17:14;16.20;1.00
3005;DHT22;1512;51.486;6.610;2023-05-14T08:21:23;16.20;1.00
3005;DHT22;1512;51.486;6.610;2023-05-14T08:25:32;16.40;1.00
3005;DHT22;1512;51.486;6.610;2023-05-14T08:29:41;16.50;1.00
3005;DHT22;1512;51.486;6.610;2023-05-14T08:33:50;16.70;1.00
3005;DHT22;1512;51.486;6.610;2023-05-14T08:37:59;16.90;1.00
3005;DHT22;1512;51.486;6.610;2023-05-14T08:42:09;17.10;1.00
3005;DHT22;1512;51.486;6.610;2023-05-14T08:46:21;17.30;1.00
3005;DHT22;1512;51.486;6.610;2023-05-14T08:50:31;17.40;1.00
3005;DHT22;1512;51.486;6.610;2023-05-14T08:54:39;17.50;1.00
3005;DHT22;1512;51.486;6.610;2023-05-14T08:58:49;17.70;1.00
3005;DHT22;1512;51.486;6.610;2023-05-14T09:03:01;17.80;1.00
3005;DHT22;1512;51.486;6.610;2023-05-14T09:07:11;17.90;1.00
3005;DHT22;1512;51.486;6.610;2023-05-14T09:11:20;18.00;1.00
3005;DHT22;1512;51.486;6.610;2023-05-14T09:15:32;18.20;1.00
3005;DHT22;1512;51.486;6.610;2023-05-14T09:19:43;18.70;1.00
3005;DHT22;1512;51.486;6.610;2023-05-14T09:23:56;18.90;1.00
3005;DHT22;1512;51.486;6.610;2023-05-14T09:28:08;19.00;1.00
3005;DHT22;1512;51.486;6.610;2023-05-14T09:32:18;19.40;1.00
3005;DHT22;1512;51.486;6.610;2023-05-14T09:36:28;19.50;1.00
3005;DHT22;1512;51.486;6.610;2023-05-14T09:40:37;19.70;1.00
3005;DHT22;1512;51.486;6.610;2023-05-14T09:44:46;19.80;1.00
3005;DHT22;1512;51.486;6.610;2023-05-14T09:48:55;19.80;1.00
3005;DHT22;1512;51.486;6.610;2023-05-14T09:53:05;19.90;1.00
3005;DHT22;1512;51.486;6.610;2023-05-14T09:57:14;20.00;1.00
3005;DHT22;1512;51.486;6.610;2023-05-14T10:01:24;20.10;1.00
3005;DHT22;1512;51.486;6.610;2023-05-14T10:05:41;20.20;1.00
3005;DHT22;1512;51.486;6.610;2023-05-14T10:09:55;20.50;1.00
3005;DHT22;1512;51.486;6.610;2023-05-14T10:14:24;20.70;1.00
3005;DHT22;1512;51.486;6.610;2023-05-14T10:18:38;20.70;1.00
3005;DHT22;1512;51.486;6.610;2023-05-14T10:22:45;20.90;1.00
3005;DHT22;1512;51.486;6.610;2023-05-14T10:26:54;21.00;1.00
3005;DHT22;1512;51.486;6.610;2023-05-14T10:31:07;21.10;99.90
3005;DHT22;1512;51.486;6.610;2023-05-14T10:35:17;21.20;99.90
3005;DHT22;1512;51.486;6.610;2023-05-14T10:39:44;21.30;99.90
3005;DHT22;1512;51.486;6.610;2023-05-14T10:43:55;21.40;99.90
3005;DHT22;1512;51.486;6.610;2023-05-14T10:48:24;21.60;99.90
3005;DHT22;1512;51.486;6.610;2023-05-14T10:52:33;21.70;99.90
3005;DHT22;1512;51.486;6.610;2023-05-14T10:56:48;21.70;99.90
3005;DHT22;1512;51.486;6.610;2023-05-14T11:00:55;21.30;99.90
3005;DHT22;1512;51.486;6.610;2023-05-14T11:05:05;21.50;99.90
3005;DHT22;1512;51.486;6.610;2023-05-14T11:09:16;21.70;99.90
3005;DHT22;1512;51.486;6.610;2023-05-14T11:13:26;21.90;99.90
3005;DHT22;1512;51.486;6.610;2023-05-14T11:17:36;22.20;99.90
3005;DHT22;1512;51.486;6.610;2023-05-14T11:21:45;22.50;99.90
3005;DHT22;1512;51.486;6.610;2023-05-14T11:25:56;22.70;99.90
3005;DHT22;1512;51.486;6.610;2023-05-14T11:30:13;22.90;99.90
3005;DHT22;1512;51.486;6.610;2023-05-14T11:34:25;23.20;99.90
3005;DHT22;1512;51.486;6.610;2023-05-14T11:38:34;23.30;99.90
3005;DHT22;1512;51.486;6.610;2023-05-14T11:42:44;23.50;99.90
3005;DHT22;1512;51.486;6.610;2023-05-14T11:46:55;23.30;99.90
3005;DHT22;1512;51.486;6.610;2023-05-14T11:51:04;22.80;99.90
3005;DHT22;1512;51.486;6.610;2023-05-14T11:55:13;22.40;99.90
3005;DHT22;1512;51.486;6.610;2023-05-14T11:59:27;22.10;99.90
3005;DHT22;1512;51.486;6.610;2023-05-14T12:03:36;22.00;99.90
3005;DHT22;1512;51.486;6.610;2023-05-14T12:07:45;22.40;99.90
3005;DHT22;1512;51.486;6.610;2023-05-14T12:11:54;22.70;99.90
3005;DHT22;1512;51.486;6.610;2023-05-14T12:16:03;22.90;99.90
3005;DHT22;1512;51.486;6.610;2023-05-14T12:20:12;22.90;99.90
3005;DHT22;1512;51.486;6.610;2023-05-14T12:24:23;23.00;99.90
3005;DHT22;1512;51.486;6.610;2023-05-14T12:28:32;23.20;99.90
3005;DHT22;1512;51.486;6.610;2023-05-14T12:32:42;23.10;99.90
3005;DHT22;1512;51.486;6.610;2023-05-14T12:36:51;23.10;99.90
3005;DHT22;1512;51.486;6.610;2023-05-14T12:40:59;23.10;99.90
3005;DHT22;1512;51.486;6.610;2023-05-14T12:45:09;23.10;99.90
3005;DHT22;1512;51.486;6.610;2023-05-14T12:49:24;23.10;99.90
3005;DHT22;1512;51.486;6.610;2023-05-14T12:53:33;23.20;99.90
3005;DHT22;1512;51.486;6.610;2023-05-14T12:57:42;23.20;99.90
3005;DHT22;1512;51.486;6.610;2023-05-14T13:01:51;23.30;99.90
3005;DHT22;1512;51.486;6.610;2023-05-14T13:05:59;23.40;99.90
3005;DHT22;1512;51.486;6.610;2023-05-14T13:10:08;23.40;99.90
3005;DHT22;1512;51.486;6.610;2023-05-14T13:14:17;23.60;99.90
3005;DHT22;1512;51.486;6.610;2023-05-14T13:18:26;23.50;99.90
3005;DHT22;1512;51.486;6.610;2023-05-14T13:22:35;23.40;99.90
3005;DHT22;1512;51.486;6.610;2023-05-14T13:26:44;23.50;99.90
3005;DHT22;1512;51.486;6.610;2023-05-14T13:31:04;23.50;99.90
3005;DHT22;1512;51.486;6.610;2023-05-14T13:35:13;23.50;99.90
3005;DHT22;1512;51.486;6.610;2023-05-14T13:39:22;23.60;99.90
3005;DHT22;1512;51.486;6.610;2023-05-14T13:43:33;23.50;99.90
3005;DHT22;1512;51.486;6.610;2023-05-14T13:47:42;23.70;99.90
3005;DHT22;1512;51.486;6.610;2023-05-14T13:51:51;23.60;99.90
3005;DHT22;1512;51.486;6.610;2023-05-14T13:56:00;23.50;99.90
3005;DHT22;1512;51.486;6.610;2023-05-14T14:00:09;23.40;99.90
3005;DHT22;1512;51.486;6.610;2023-05-14T14:04:18;23.30;99.90
3005;DHT22;1512;51.486;6.610;2023-05-14T14:08:27;23.40;99.90
3005;DHT22;1512;51.486;6.610;2023-05-14T14:12:36;23.40;99.90
3005;DHT22;1512;51.486;6.610;2023-05-14T14:16:44;23.50;99.90
3005;DHT22;1512;51.486;6.610;2023-05-14T14:20:53;23.30;99.90
3005;DHT22;1512;51.486;6.610;2023-05-14T14:25:02;23.30;99.90
3005;DHT22;1512;51.486;6.610;2023-05-14T14:29:11;23.20;99.90
3005;DHT22;1512;51.486;6.610;2023-05-14T14:33:20;23.40;99.90
3005;DHT22;1512;51.486;6.610;2023-05-14T14:37:29;23.40;99.90
3005;DHT22;1512;51.486;6.610;2023-05-14T14:41:37;23.10;99.90
3005;DHT22;1512;51.486;6.610;2023-05-14T14:45:46;22.90;99.90
3005;DHT22;1512;51.486;6.610;2023-05-14T14:49:56;23.00;99.90
3005;DHT22;1512;51.486;6.610;2023-05-14T14:54:08;23.00;99.90
3005;DHT22;1512;51.486;6.610;2023-05-14T14:58:18;22.90;99.90
3005;DHT22;1512;51.486;6.610;2023-05-14T15:02:29;22.80;99.90
3005;DHT22;1512;51.486;6.610;2023-05-14T15:06:38;22.70;99.90
3005;DHT22;1512;51.486;6.610;2023-05-14T15:10:46;22.50;99.90
3005;DHT22;1512;51.486;6.610;2023-05-14T15:14:55;22.50;99.90
3005;DHT22;1512;51.486;6.610;2023-05-14T15:19:04;22.40;99.90
3005;DHT22;1512;51.486;6.610;2023-05-14T15:23:13;22.20;99.90
3005;DHT22;1512;51.486;6.610;2023-05-14T15:27:21;22.20;99.90
3005;DHT22;1512;51.486;6.610;2023-05-14T15:31:30;22.10;99.90
3005;DHT22;1512;51.486;6.610;2023-05-14T15:35:39;22.20;99.90
3005;DHT22;1512;51.486;6.610;2023-05-14T15:39:47;22.10;99.90
3005;DHT22;1512;51.486;6.610;2023-05-14T15:43:56;22.20;99.90
3005;DHT22;1512;51.486;6.610;2023-05-14T15:48:05;22.00;99.90
3005;DHT22;1512;51.486;6.610;2023-05-14T15:52:14;21.80;99.90
3005;DHT22;1512;51.486;6.610;2023-05-14T15:56:23;21.70;99.90
3005;DHT22;1512;51.486;6.610;2023-05-14T16:00:32;21.70;99.90
3005;DHT22;1512;51.486;6.610;2023-05-14T16:04:40;21.60;99.90
3005;DHT22;1512;51.486;6.610;2023-05-14T16:08:51;21.70;99.90
3005;DHT22;1512;51.486;6.610;2023-05-14T16:12:59;21.70;99.90
3005;DHT22;1512;51.486;6.610;2023-05-14T16:17:08;21.60;99.90
3005;DHT22;1512;51.486;6.610;2023-05-14T16:21:17;21.50;99.90
3005;DHT22;1512;51.486;6.610;2023-05-14T16:25:26;21.40;99.90
3005;DHT22;1512;51.486;6.610;2023-05-14T16:29:34;21.40;99.90
3005;DHT22;1512;51.486;6.610;2023-05-14T16:33:43;21.40;99.90
3005;DHT22;1512;51.486;6.610;2023-05-14T16:37:52;21.40;99.90
3005;DHT22;1512;51.486;6.610;2023-05-14T16:42:01;21.40;99.90
3005;DHT22;1512;51.486;6.610;2023-05-14T16:46:10;21.30;99.90
3005;DHT22;1512;51.486;6.610;2023-05-14T16:50:19;21.20;99.90
3005;DHT22;1512;51.486;6.610;2023-05-14T16:54:29;21.20;99.90
3005;DHT22;1512;51.486;6.610;2023-05-14T16:58:37;21.20;99.90
3005;DHT22;1512;51.486;6.610;2023-05-14T17:02:46;21.10;99.90
3005;DHT22;1512;51.486;6.610;2023-05-14T17:06:56;21.00;99.90
3005;DHT22;1512;51.486;6.610;2023-05-14T17:11:05;20.90;99.90
3005;DHT22;1512;51.486;6.610;2023-05-14T17:15:13;20.90;99.90
3005;DHT22;1512;51.486;6.610;2023-05-14T17:19:22;20.80;99.90
3005;DHT22;1512;51.486;6.610;2023-05-14T17:23:31;20.70;99.90
3005;DHT22;1512;51.486;6.610;2023-05-14T17:27:39;20.70;99.90
3005;DHT22;1512;51.486;6.610;2023-05-14T17:31:48;20.70;99.90
3005;DHT22;1512;51.486;6.610;2023-05-14T17:35:57;20.60;99.90
3005;DHT22;1512;51.486;6.610;2023-05-14T17:40:07;20.50;99.90
3005;DHT22;1512;51.486;6.610;2023-05-14T17:44:16;20.40;99.90
3005;DHT22;1512;51.486;6.610;2023-05-14T17:48:25;20.40;99.90
3005;DHT22;1512;51.486;6.610;2023-05-14T17:52:34;20.30;99.90
3005;DHT22;1512;51.486;6.610;2023-05-14T17:56:43;20.20;99.90
3005;DHT22;1512;51.486;6.610;2023-05-14T18:00:51;20.10;99.90
3005;DHT22;1512;51.486;6.610;2023-05-14T18:05:00;20.00;99.90
3005;DHT22;1512;51.486;6.610;2023-05-14T18:09:09;20.00;99.90
3005;DHT22;1512;51.486;6.610;2023-05-14T18:13:18;19.90;99.90
3005;DHT22;1512;51.486;6.610;2023-05-14T18:17:27;19.80;99.90
3005;DHT22;1512;51.486;6.610;2023-05-14T18:21:35;19.80;99.90
3005;DHT22;1512;51.486;6.610;2023-05-14T18:25:44;19.70;99.90
3005;DHT22;1512;51.486;6.610;2023-05-14T18:29:54;19.60;99.90
3005;DHT22;1512;51.486;6.610;2023-05-14T18:34:03;19.50;99.90
3005;DHT22;1512;51.486;6.610;2023-05-14T18:38:11;19.40;99.90
3005;DHT22;1512;51.486;6.610;2023-05-14T18:42:20;19.40;99.90
3005;DHT22;1512;51.486;6.610;2023-05-14T18:46:29;19.30;99.90
3005;DHT22;1512;51.486;6.610;2023-05-14T18:50:38;19.30;99.90
3005;DHT22;1512;51.486;6.610;2023-05-14T18:54:47;19.20;99.90
3005;DHT22;1512;51.486;6.610;2023-05-14T18:58:55;19.10;99.90
3005;DHT22;1512;51.486;6.610;2023-05-14T19:03:04;19.00;99.90
3005;DHT22;1512;51.486;6.610;2023-05-14T19:07:13;19.00;99.90
3005;DHT22;1512;51.486;6.610;2023-05-14T19:11:21;18.90;99.90
3005;DHT22;1512;51.486;6.610;2023-05-14T19:15:30;18.90;99.90
3005;DHT22;1512;51.486;6.610;2023-05-14T19:19:39;18.80;99.90
3005;DHT22;1512;51.486;6.610;2023-05-14T19:23:48;18.70;99.90
3005;DHT22;1512;51.486;6.610;2023-05-14T19:27:57;18.60;99.90
3005;DHT22;1512;51.486;6.610;2023-05-14T19:32:07;18.60;99.90
3005;DHT22;1512;51.486;6.610;2023-05-14T19:36:16;18.50;99.90
3005;DHT22;1512;51.486;6.610;2023-05-14T19:40:25;18.30;99.90
3005;DHT22;1512;51.486;6.610;2023-05-14T19:44:35;18.30;99.90
3005;DHT22;1512;51.486;6.610;2023-05-14T19:48:43;18.30;99.90
3005;DHT22;1512;51.486;6.610;2023-05-14T19:52:52;18.20;99.90
3005;DHT22;1512;51.486;6.610;2023-05-14T19:57:01;18.10;99.90
3005;DHT22;1512;51.486;6.610;2023-05-14T20:01:10;18.20;99.90
3005;DHT22;1512;51.486;6.610;2023-05-14T20:05:18;18.10;99.90
3005;DHT22;1512;51.486;6.610;2023-05-14T20:09:27;18.00;99.90
3005;DHT22;1512;51.486;6.610;2023-05-14T20:13:36;18.00;99.90
3005;DHT22;1512;51.486;6.610;2023-05-14T20:17:45;18.10;99.90
3005;DHT22;1512;51.486;6.610;2023-05-14T20:21:54;17.90;99.90
3005;DHT22;1512;51.486;6.610;2023-05-14T20:26:03;17.90;99.90
3005;DHT22;1512;51.486;6.610;2023-05-14T20:30:12;17.80;99.90
3005;DHT22;1512;51.486;6.610;2023-05-14T20:34:20;17.70;99.90
3005;DHT22;1512;51.486;6.610;2023-05-14T20:38:29;17.80;99.90
3005;DHT22;1512;51.486;6.610;2023-05-14T20:42:40;17.70;99.90
3005;DHT22;1512;51.486;6.610;2023-05-14T20:46:49;17.60;99.90
3005;DHT22;1512;51.486;6.610;2023-05-14T20:50:58;17.60;99.90
3005;DHT22;1512;51.486;6.610;2023-05-14T20:55:08;17.50;99.90
3005;DHT22;1512;51.486;6.610;2023-05-14T20:59:17;17.50;99.90
3005;DHT22;1512;51.486;6.610;2023-05-14T21:03:26;17.40;99.90
3005;DHT22;1512;51.486;6.610;2023-05-14T21:07:35;17.40;99.90
3005;DHT22;1512;51.486;6.610;2023-05-14T21:11:44;17.30;99.90
3005;DHT22;1512;51.486;6.610;2023-05-14T21:15:52;17.30;99.90
3005;DHT22;1512;51.486;6.610;2023-05-14T21:20:01;17.30;1.00
3005;DHT22;1512;51.486;6.610;2023-05-14T21:24:10;17.20;1.00
3005;DHT22;1512;51.486;6.610;2023-05-14T21:28:19;17.20;1.00
3005;DHT22;1512;51.486;6.610;2023-05-14T21:32:28;17.10;1.00
3005;DHT22;1512;51.486;6.610;2023-05-14T21:36:37;17.10;1.00
3005;DHT22;1512;51.486;6.610;2023-05-14T21:40:46;17.00;1.00
3005;DHT22;1512;51.486;6.610;2023-05-14T21:44:54;16.90;1.00
3005;DHT22;1512;51.486;6.610;2023-05-14T21:49:03;16.90;1.00
3005;DHT22;1512;51.486;6.610;2023-05-14T21:53:12;16.90;1.00
3005;DHT22;1512;51.486;6.610;2023-05-14T21:57:21;16.90;1.00
3005;DHT22;1512;51.486;6.610;2023-05-14T22:01:29;16.70;1.00
3005;DHT22;1512;51.486;6.610;2023-05-14T22:05:39;16.70;1.00
3005;DHT22;1512;51.486;6.610;2023-05-14T22:09:48;16.70;1.00
3005;DHT22;1512;51.486;6.610;2023-05-14T22:13:57;16.60;1.00
3005;DHT22;1512;51.486;6.610;2023-05-14T22:18:05;16.40;1.00
3005;DHT22;1512;51.486;6.610;2023-05-14T22:22:14;16.40;1.00
3005;DHT22;1512;51.486;6.610;2023-05-14T22:26:23;16.30;1.00
3005;DHT22;1512;51.486;6.610;2023-05-14T22:30:32;16.10;1.00
3005;DHT22;1512;51.486;6.610;2023-05-14T22:34:40;16.10;1.00
3005;DHT22;1512;51.486;6.610;2023-05-14T22:38:49;16.00;1.00
3005;DHT22;1512;51.486;6.610;2023-05-14T22:42:59;16.00;1.00
3005;DHT22;1512;51.486;6.610;2023-05-14T22:47:08;15.80;1.00
3005;DHT22;1512;51.486;6.610;2023-05-14T22:51:17;15.80;1.00
3005;DHT22;1512;51.486;6.610;2023-05-14T22:55:25;15.70;24.30
3005;DHT22;1512;51.486;6.610;2023-05-14T22:59:34;15.60;69.10
3005;DHT22;1512;51.486;6.610;2023-05-14T23:03:43;15.70;1.00
3005;DHT22;1512;51.486;6.610;2023-05-14T23:07:52;15.70;1.00
3005;DHT22;1512;51.486;6.610;2023-05-14T23:12:02;15.70;1.00
3005;DHT22;1512;51.486;6.610;2023-05-14T23:16:11;15.60;1.00
3005;DHT22;1512;51.486;6.610;2023-05-14T23:20:19;15.50;1.00
3005;DHT22;1512;51.486;6.610;2023-05-14T23:24:28;15.50;1.00
3005;DHT22;1512;51.486;6.610;2023-05-14T23:28:37;15.30;3.70
3005;DHT22;1512;51.486;6.610;2023-05-14T23:32:45;15.30;22.70
3005;DHT22;1512;51.486;6.610;2023-05-14T23:36:54;15.20;18.40
3005;DHT22;1512;51.486;6.610;2023-05-14T23:41:03;15.10;1.00
3005;DHT22;1512;51.486;6.610;2023-05-14T23:45:12;15.00;62.20
3005;DHT22;1512;51.486;6.610;2023-05-14T23:49:21;15.00;99.90
3005;DHT22;1512;51.486;6.610;2023-05-14T23:53:30;14.90;45.90
3005;DHT22;1512;51.486;6.610;2023-05-14T23:57:38;14.80;93.30
